Time;durP1;ratioP1;P1;durP2;ratioP2;P2;SDS_P1;SDS_P2;PMS_P1;PMS_P2;Temp;Humidity;BMP_temperature;BMP_pressure;BME280_temperature;BME280_humidity;BME280_pressure;Samples;Min_cycle;Max_cycle;Signal;HPM_P1;HPM_P2
2022/12/30 00:02:19;;;;;;;1.15;0.47;;;;;;;8.89;73.20;96539.59;6185549;23;20021;-76
2022/12/30 00:04:46;;;;;;;0.32;0.22;;;;;;;8.90;73.21;96537.78;6185455;23;20025;-77
2022/12/30 00:07:14;;;;;;;0.32;0.22;;;;;;;8.89;73.45;96542.19;6185290;23;20021;-78
2022/12/30 00:09:41;;;;;;;3.63;1.90;;;;;;;8.91;73.60;96542.03;6184767;23;20032;-77
2022/12/30 00:34:19;;;;;;;0.57;0.57;;;;;;;8.87;73.35;96544.16;6187369;23;20024;-78
2022/12/30 00:36:49;;;;;;;0.95;0.40;;;;;;;8.86;73.39;96543.34;6158007;23;20473;-78
2022/12/30 00:39:17;;;;;;;0.38;0.22;;;;;;;8.87;73.58;96541.56;6158148;23;20025;-77
2022/12/30 00:44:30;;;;;;;0.20;0.15;;;;;;;8.87;73.28;96536.34;6179823;23;20021;-77
2022/12/30 00:46:59;;;;;;;0.75;0.20;;;;;;;8.86;73.49;96532.94;6187003;23;20025;-77
2022/12/30 00:57:43;;;;;;;0.40;0.30;;;;;;;8.87;74.13;96559.75;6186572;23;20032;-77
2022/12/30 01:00:13;;;;;;;0.55;0.20;;;;;;;8.86;73.52;96563.34;6186687;23;20028;-78
2022/12/30 01:02:41;;;;;;;1.25;0.38;;;;;;;8.85;74.14;96562.56;6186595;23;20357;-78
2022/12/30 01:05:10;;;;;;;0.55;0.20;;;;;;;8.84;73.19;96565.31;6186324;23;20017;-77
2022/12/30 01:07:38;;;;;;;1.65;0.20;;;;;;;8.81;72.54;96565.66;6186419;23;20025;-77
2022/12/30 01:10:06;;;;;;;0.85;0.40;;;;;;;8.80;73.26;96575.25;6186221;23;20024;-77
2022/12/30 01:12:33;;;;;;;0.40;0.17;;;;;;;8.81;73.29;96582.09;6186416;23;20084;-77
2022/12/30 01:15:01;;;;;;;1.42;0.47;;;;;;;8.81;73.51;96579.47;6186618;23;20096;-77
2022/12/30 01:17:31;;;;;;;0.52;0.32;;;;;;;8.81;73.69;96576.03;6189636;23;20021;-77
2022/12/30 01:19:59;;;;;;;0.30;0.13;;;;;;;8.81;73.39;96581.25;6209501;23;20045;-78
2022/12/30 01:22:27;;;;;;;0.35;0.28;;;;;;;8.80;72.90;96579.66;6209579;23;20045;-78
2022/12/30 01:24:55;;;;;;;0.68;0.30;;;;;;;8.80;72.99;96577.84;6195758;23;20104;-77
2022/12/30 01:27:23;;;;;;;0.30;0.20;;;;;;;8.80;73.43;96590.84;6186451;23;20093;-78
2022/12/30 01:29:50;;;;;;;1.02;0.32;;;;;;;8.81;73.79;96595.09;6185826;23;20023;-78
2022/12/30 01:32:20;;;;;;;1.08;0.20;;;;;;;8.81;73.62;96591.66;6186736;23;20036;-79
2022/12/30 01:34:48;;;;;;;0.40;0.20;;;;;;;8.80;73.67;96595.25;6186601;23;20029;-78
2022/12/30 01:37:16;;;;;;;0.70;0.20;;;;;;;8.80;73.80;96595.25;6186287;23;20025;-77
2022/12/30 01:39:45;;;;;;;0.63;0.20;;;;;;;8.80;74.13;96600.44;6185900;23;20100;-78
2022/12/30 01:42:19;;;;;;;1.00;0.20;;;;;;;8.81;74.94;96604.66;6186412;23;20469;-77
2022/12/30 01:44:56;;;;;;;0.55;0.35;;;;;;;8.80;73.98;96611.66;6186035;23;20021;-77
2022/12/30 01:47:28;;;;;;;1.27;0.40;;;;;;;8.79;74.37;96612.66;6185987;23;20032;-77
2022/12/30 01:50:05;;;;;;;0.63;0.25;;;;;;;8.81;74.62;96607.25;6185583;23;20221;-78
2022/12/30 01:52:34;;;;;;;1.70;0.47;;;;;;;8.81;74.11;96615.06;6186219;23;20028;-78
2022/12/30 01:55:10;;;;;;;1.05;0.35;;;;;;;8.81;75.43;96609.88;6185523;23;20025;-78
2022/12/30 01:57:39;;;;;;;1.75;0.68;;;;;;;8.81;73.95;96604.66;6185709;23;20461;-78
2022/12/30 02:00:08;;;;;;;1.20;0.40;;;;;;;8.78;73.69;96605.00;6185821;23;20028;-77
2022/12/30 02:02:36;;;;;;;0.63;0.40;;;;;;;8.77;73.37;96601.59;6160385;23;20025;-77
2022/12/30 02:05:07;;;;;;;1.77;0.63;;;;;;;8.78;73.39;96612.81;6186283;23;20017;-78
2022/12/30 02:07:38;;;;;;;0.32;0.32;;;;;;;8.78;73.87;96618.00;6186094;23;20021;-78
2022/12/30 02:10:09;;;;;;;0.85;0.40;;;;;;;8.77;73.09;96625.00;6187727;23;20032;-78
2022/12/30 02:12:36;;;;;;;1.08;0.60;;;;;;;8.74;72.99;96627.13;6187280;23;20487;-78
2022/12/30 02:15:06;;;;;;;1.30;0.30;;;;;;;8.72;72.83;96623.88;6186551;23;20480;-77
2022/12/30 02:17:45;;;;;;;2.47;0.40;;;;;;;8.69;72.15;96619.84;6185804;23;20031;-78
2022/12/30 02:20:48;;;;;;;3.70;0.85;;;;;;;8.65;72.07;96628.97;6186055;23;20024;-78
2022/12/30 02:23:49;;;;;;;0.93;0.50;;;;;;;8.60;71.56;96636.47;6185883;23;20424;-78
2022/12/30 02:26:45;;;;;;;1.27;0.35;;;;;;;8.53;71.45;96636.31;6185915;23;20021;-78
2022/12/30 02:29:31;;;;;;;1.83;0.40;;;;;;;8.47;71.40;96646.59;6185683;23;20096;-78
2022/12/30 02:32:09;;;;;;;1.33;0.28;;;;;;;8.42;71.68;96658.28;6185188;23;20036;-80
2022/12/30 02:34:50;;;;;;;1.08;0.60;;;;;;;8.42;72.68;96653.09;6185567;23;20361;-79
2022/12/30 02:37:26;;;;;;;1.75;0.55;;;;;;;8.43;73.25;96662.50;6185811;23;20027;-80
2022/12/30 02:40:04;;;;;;;1.58;0.55;;;;;;;8.44;73.68;96669.34;6184746;23;20025;-80
2022/12/30 02:45:30;;;;;;;4.57;0.63;;;;;;;8.44;73.28;96664.13;6184898;23;20349;-80
2022/12/30 02:48:02;;;;;;;0.38;0.20;;;;;;;8.40;72.46;96662.84;6184894;23;20016;-80
2022/12/30 02:53:22;;;;;;;3.47;1.52;;;;;;;8.34;72.68;96666.06;6198764;23;20032;-79
2022/12/30 02:55:52;;;;;;;4.22;1.58;;;;;;;8.32;72.22;96664.63;6210312;23;20032;-79
2022/12/30 02:58:20;;;;;;;6.28;1.83;;;;;;;8.28;72.79;96664.13;6205267;23;20049;-79
2022/12/30 03:03:59;;;;;;;4.65;3.20;;;;;;;8.31;73.18;96668.19;6185535;23;20032;-79
2022/12/30 03:06:43;;;;;;;2.38;2.20;;;;;;;8.28;72.39;96661.53;6185723;23;20052;-80
2022/12/30 03:09:21;;;;;;;2.53;1.67;;;;;;;8.27;72.28;96656.50;6185009;23;20032;-79
2022/12/30 03:11:57;;;;;;;3.38;1.52;;;;;;;8.20;72.24;96657.16;6185702;23;20024;-79
2022/12/30 03:14:31;;;;;;;1.35;0.80;;;;;;;8.15;72.22;96671.63;6201865;23;20021;-79
2022/12/30 03:17:04;;;;;;;2.95;0.75;;;;;;;8.11;72.37;96671.16;6210895;23;20025;-80
2022/12/30 03:19:39;;;;;;;4.22;0.85;;;;;;;8.09;72.40;96674.88;6205919;23;20100;-79
2022/12/30 03:27:03;;;;;;;1.83;0.30;;;;;;;8.07;72.55;96671.63;6187594;23;20365;-77
2022/12/30 03:27:48;;;;;;;2.30;0.70;;;;;;;8.02;72.74;96672.13;6185585;23;20024;-77
2022/12/30 03:30:17;;;;;;;2.13;0.52;;;;;;;7.99;72.77;96672.47;6186303;23;20358;-77
2022/12/30 03:32:45;;;;;;;1.73;0.68;;;;;;;7.96;72.80;96677.97;6185447;23;20060;-78
2022/12/30 03:35:14;;;;;;;0.52;0.30;;;;;;;7.98;73.79;96679.44;6185057;23;20042;-78
2022/12/30 03:37:45;;;;;;;0.75;0.35;;;;;;;8.01;73.24;96679.09;6184707;23;20021;-77
2022/12/30 03:40:18;;;;;;;1.13;0.30;;;;;;;8.02;72.95;96672.13;6185821;23;20021;-78
2022/12/30 03:42:47;;;;;;;1.30;0.28;;;;;;;8.01;73.04;96665.31;6185121;23;20021;-77
2022/12/30 03:45:16;;;;;;;2.25;0.38;;;;;;;8.00;72.93;96661.91;6185251;23;20059;-77
2022/12/30 03:47:45;;;;;;;0.88;0.30;;;;;;;7.97;72.90;96666.59;6185288;23;20060;-77
2022/12/30 03:50:14;;;;;;;0.20;0.20;;;;;;;7.92;73.24;96672.31;6185359;23;20105;-77
2022/12/30 03:52:41;;;;;;;0.50;0.40;;;;;;;7.93;73.34;96670.50;6185074;23;20393;-78
2022/12/30 03:55:09;;;;;;;1.55;0.30;;;;;;;7.97;73.61;96677.00;6184962;23;20021;-77
2022/12/30 03:57:37;;;;;;;3.08;0.20;;;;;;;7.99;73.68;96673.25;6185002;23;20028;-77
2022/12/30 04:00:07;;;;;;;1.20;0.47;;;;;;;8.02;73.66;96680.75;6184598;23;20021;-77
2022/12/30 04:02:35;;;;;;;0.55;0.22;;;;;;;8.06;74.28;96683.81;6185172;23;20051;-78
2022/12/30 04:05:03;;;;;;;2.45;0.50;;;;;;;8.07;73.70;96682.84;6186182;23;20021;-77
2022/12/30 04:07:33;;;;;;;1.38;0.47;;;;;;;8.09;73.87;96683.50;6186548;23;20388;-78
2022/12/30 04:10:01;;;;;;;1.27;0.32;;;;;;;8.12;74.48;96670.16;6185194;23;20100;-78
2022/12/30 04:12:29;;;;;;;0.65;0.28;;;;;;;8.16;74.41;96666.28;6185089;23;20414;-77
2022/12/30 04:14:56;;;;;;;3.25;0.40;;;;;;;8.16;73.74;96666.28;6185201;23;20426;-77
2022/12/30 04:17:24;;;;;;;0.30;0.30;;;;;;;8.16;74.19;96666.28;6185079;23;20021;-78
2022/12/30 04:19:51;;;;;;;1.85;0.40;;;;;;;8.18;74.57;96671.31;6184530;23;20032;-77
2022/12/30 04:22:19;;;;;;;0.77;0.40;;;;;;;8.18;73.90;96663.50;6185317;23;20028;-77
2022/12/30 04:24:48;;;;;;;0.43;0.30;;;;;;;8.18;74.76;96658.31;6184940;23;20021;-77
2022/12/30 04:27:22;;;;;;;0.52;0.30;;;;;;;8.17;74.62;96667.88;6185492;23;20077;-77
2022/12/30 04:29:50;;;;;;;3.75;1.30;;;;;;;8.14;73.48;96668.22;6184602;23;20031;-77
2022/12/30 04:32:17;;;;;;;5.05;0.90;;;;;;;8.07;72.81;96671.63;6184985;23;20027;-77
2022/12/30 04:34:46;;;;;;;0.55;0.30;;;;;;;7.98;72.42;96674.25;6184547;23;20025;-78
2022/12/30 04:37:13;;;;;;;1.48;0.50;;;;;;;7.91;72.62;96675.06;6184753;23;20032;-78
2022/12/30 04:39:41;;;;;;;1.35;0.68;;;;;;;7.81;72.65;96673.44;6184568;23;20021;-78
2022/12/30 04:42:09;;;;;;;1.90;0.32;;;;;;;7.75;72.57;96675.88;6185046;23;20032;-77
2022/12/30 04:44:37;;;;;;;1.10;0.70;;;;;;;7.69;72.57;96679.91;6184572;23;20548;-77
2022/12/30 04:47:05;;;;;;;1.38;0.50;;;;;;;7.61;72.66;96677.34;6184923;23;20043;-77
2022/12/30 04:49:32;;;;;;;1.27;0.70;;;;;;;7.56;72.59;96671.78;6184234;23;20025;-77
2022/12/30 04:52:00;;;;;;;8.02;3.08;;;;;;;7.51;72.63;96671.47;6184174;23;20365;-78
2022/12/30 04:54:27;;;;;;;7.07;2.50;;;;;;;7.49;72.95;96673.41;6184732;23;20017;-77
2022/12/30 04:56:55;;;;;;;6.05;2.40;;;;;;;7.49;73.01;96673.41;6184373;23;20039;-77
2022/12/30 04:59:24;;;;;;;4.10;1.95;;;;;;;7.46;72.90;96674.56;6183880;23;20024;-78
2022/12/30 05:01:51;;;;;;;2.47;0.63;;;;;;;7.42;72.73;96668.84;6184972;23;20335;-78
2022/12/30 05:04:19;;;;;;;4.18;1.73;;;;;;;7.39;72.53;96673.53;6184868;23;20358;-78
2022/12/30 05:06:47;;;;;;;2.65;1.38;;;;;;;7.37;72.93;96665.94;6184439;23;20021;-78
2022/12/30 05:09:14;;;;;;;0.77;0.70;;;;;;;7.37;73.39;96665.94;6185957;23;20027;-77
2022/12/30 05:11:42;;;;;;;0.65;0.40;;;;;;;7.40;74.08;96668.19;6210392;23;20029;-77
2022/12/30 05:14:10;;;;;;;0.85;0.60;;;;;;;7.42;74.03;96673.25;6210228;23;20362;-79
2022/12/30 05:16:38;;;;;;;0.82;0.38;;;;;;;7.43;73.55;96674.84;6199434;23;20051;-77
2022/12/30 05:19:06;;;;;;;0.25;0.13;;;;;;;7.45;74.21;96674.69;6185924;23;20357;-77
2022/12/30 05:21:33;;;;;;;1.25;0.30;;;;;;;7.47;74.19;96677.94;6186731;23;20025;-78
2022/12/30 05:26:46;;;;;;;1.33;0.40;;;;;;;7.45;72.83;96677.28;6187766;23;20027;-78
2022/12/30 05:29:15;;;;;;;0.77;0.40;;;;;;;7.42;72.26;96678.44;6187429;23;20107;-77
2022/12/30 05:31:44;;;;;;;1.48;0.43;;;;;;;7.40;72.17;96685.56;6186145;23;20373;-78
2022/12/30 05:34:11;;;;;;;1.45;0.40;;;;;;;7.37;72.10;96680.72;6186195;23;20021;-78
2022/12/30 05:36:39;;;;;;;2.25;0.38;;;;;;;7.34;73.09;96681.00;6186093;23;20027;-77
2022/12/30 05:39:07;;;;;;;0.50;0.50;;;;;;;7.33;73.09;96675.00;6185719;23;20017;-78
2022/12/30 05:41:34;;;;;;;1.23;0.45;;;;;;;7.33;72.53;96663.81;6186088;23;20342;-77
2022/12/30 05:54:44;;;;;;;0.55;0.50;;;;;;;7.05;72.02;96658.09;6134112;23;20044;-78
2022/12/30 05:57:11;;;;;;;1.05;0.60;;;;;;;6.97;71.78;96658.84;6156366;23;20022;-78
2022/12/30 05:59:39;;;;;;;0.68;0.63;;;;;;;6.87;71.76;96653.81;6155974;23;20032;-78
2022/12/30 06:02:06;;;;;;;2.10;0.60;;;;;;;6.76;71.66;96652.31;6156231;23;20028;-78
2022/12/30 06:04:35;;;;;;;1.80;0.70;;;;;;;6.68;71.84;96659.25;6155388;23;20021;-78
2022/12/30 06:07:02;;;;;;;0.77;0.43;;;;;;;6.61;72.29;96661.66;6156886;23;20017;-78
2022/12/30 06:09:30;;;;;;;2.38;0.50;;;;;;;6.57;71.97;96670.69;6155834;23;20024;-78
2022/12/30 06:11:59;;;;;;;2.65;0.90;;;;;;;6.53;72.22;96675.38;6155986;23;20057;-78
2022/12/30 06:14:26;;;;;;;4.82;1.40;;;;;;;6.49;72.45;96676.63;6156125;23;20022;-78
2022/12/30 06:16:54;;;;;;;3.38;1.77;;;;;;;6.45;72.20;96670.16;6156118;23;20028;-78
2022/12/30 06:19:21;;;;;;;2.50;1.30;;;;;;;6.41;72.16;96674.03;6155667;23;20021;-78
2022/12/30 06:21:49;;;;;;;1.40;0.57;;;;;;;6.35;72.43;96672.03;6156141;23;20027;-78
2022/12/30 06:24:17;;;;;;;1.58;0.40;;;;;;;6.30;72.52;96684.66;6156108;23;20562;-78
2022/12/30 06:26:44;;;;;;;0.47;0.30;;;;;;;6.22;72.76;96695.75;6155385;23;20021;-78
2022/12/30 06:29:13;;;;;;;0.73;0.52;;;;;;;6.19;73.68;96689.13;6155435;23;20022;-78
2022/12/30 06:31:40;;;;;;;0.70;0.40;;;;;;;6.24;74.68;96690.44;6155484;23;20021;-78
2022/12/30 06:34:08;;;;;;;0.30;0.30;;;;;;;6.26;73.76;96691.09;6168148;23;20073;-78
2022/12/30 06:36:35;;;;;;;1.23;0.25;;;;;;;6.31;74.80;96688.84;6179353;23;20022;-78
2022/12/30 06:39:03;;;;;;;0.77;0.50;;;;;;;6.35;73.96;96690.19;6177755;23;20025;-78
2022/12/30 06:41:31;;;;;;;1.50;0.73;;;;;;;6.39;74.75;96691.50;6158172;23;20021;-78
2022/12/30 06:43:58;;;;;;;0.73;0.60;;;;;;;6.40;74.34;96686.16;6156799;23;20405;-78
2022/12/30 06:46:27;;;;;;;0.85;0.52;;;;;;;6.42;73.76;96687.78;6156340;23;20021;-78
2022/12/30 06:48:55;;;;;;;0.50;0.50;;;;;;;6.44;73.73;96694.44;6155512;23;20033;-78
2022/12/30 06:51:22;;;;;;;0.60;0.60;;;;;;;6.48;74.79;96703.53;6155907;23;20101;-77
2022/12/30 06:53:50;;;;;;;0.63;0.50;;;;;;;6.53;74.14;96695.28;6155639;23;20022;-78
2022/12/30 06:56:17;;;;;;;1.10;0.90;;;;;;;6.54;74.04;96695.16;6155590;23;20477;-78
2022/12/30 06:58:45;;;;;;;1.02;0.70;;;;;;;6.55;73.62;96691.56;6155173;23;20517;-78
2022/12/30 07:01:12;;;;;;;0.88;0.68;;;;;;;6.53;73.13;96695.28;6155832;23;20104;-78
2022/12/30 07:03:41;;;;;;;4.97;1.08;;;;;;;6.50;73.30;96691.25;6158279;23;20057;-78
2022/12/30 07:06:09;;;;;;;1.70;0.70;;;;;;;6.51;73.51;96694.63;6181623;23;20061;-78
2022/12/30 07:08:36;;;;;;;0.57;0.40;;;;;;;6.54;74.85;96697.75;6180501;23;20033;-78
2022/12/30 07:11:04;;;;;;;0.57;0.57;;;;;;;6.56;73.62;96700.19;6167946;23;20028;-78
2022/12/30 07:13:32;;;;;;;0.73;0.60;;;;;;;6.54;73.24;96692.56;6158020;23;20032;-78
2022/12/30 07:15:59;;;;;;;2.03;0.70;;;;;;;6.51;72.62;96700.63;6156153;23;20044;-78
2022/12/30 07:18:27;;;;;;;0.88;0.73;;;;;;;6.46;72.58;96702.88;6155650;23;20536;-78
2022/12/30 07:20:55;;;;;;;1.13;0.93;;;;;;;6.42;72.60;96711.91;6156299;23;20021;-78
2022/12/30 07:23:23;;;;;;;1.70;0.88;;;;;;;6.41;72.68;96715.47;6155937;23;20100;-78
2022/12/30 07:25:50;;;;;;;2.70;1.60;;;;;;;6.40;73.05;96712.06;6155558;23;20349;-78
2022/12/30 07:28:18;;;;;;;4.03;2.22;;;;;;;6.41;72.57;96715.47;6155222;23;20021;-78
2022/12/30 07:30:45;;;;;;;7.57;2.80;;;;;;;6.39;72.44;96707.03;6155167;23;20017;-78
2022/12/30 07:33:13;;;;;;;6.72;2.97;;;;;;;6.37;72.63;96714.16;6155221;23;20470;-78
2022/12/30 07:35:41;;;;;;;4.30;2.00;;;;;;;6.33;72.52;96707.66;6156685;23;20021;-78
2022/12/30 07:38:09;;;;;;;6.28;3.08;;;;;;;6.28;72.27;96726.25;6155809;23;20017;-79
2022/12/30 07:40:37;;;;;;;3.60;2.05;;;;;;;6.25;72.57;96717.94;6155723;23;20025;-78
2022/12/30 07:43:05;;;;;;;5.68;2.38;;;;;;;6.20;72.21;96715.81;6155451;23;20065;-77
2022/12/30 07:45:32;;;;;;;3.60;1.80;;;;;;;6.16;72.30;96706.72;6155498;23;20100;-78
2022/12/30 07:48:00;;;;;;;1.95;1.30;;;;;;;6.11;72.71;96708.97;6156064;23;20403;-78
2022/12/30 07:50:27;;;;;;;1.65;1.55;;;;;;;6.08;72.48;96707.50;6156098;23;20470;-78
2022/12/30 07:52:55;;;;;;;1.70;1.58;;;;;;;6.05;72.40;96710.38;6155873;23;20386;-78
2022/12/30 07:55:24;;;;;;;1.15;1.00;;;;;;;6.01;72.92;96709.03;6154829;23;20488;-78
2022/12/30 07:57:51;;;;;;;2.75;1.38;;;;;;;5.98;73.01;96699.78;6154739;23;20021;-78
2022/12/30 08:00:19;;;;;;;1.70;1.30;;;;;;;5.98;73.55;96699.00;6156047;23;20022;-78
2022/12/30 08:02:53;;;;;;;2.83;1.30;;;;;;;6.00;73.49;96704.84;6155851;23;20052;-78
2022/12/30 08:05:21;;;;;;;2.00;1.50;;;;;;;6.03;73.64;96706.31;6155517;23;20022;-78
2022/12/30 08:07:51;;;;;;;5.32;1.40;;;;;;;6.09;74.66;96711.69;6155372;23;20021;-78
2022/12/30 08:10:19;;;;;;;2.20;1.85;;;;;;;6.15;75.28;96699.94;6155810;23;20027;-78
2022/12/30 08:12:48;;;;;;;2.17;2.00;;;;;;;6.21;75.81;96703.69;6157695;23;20074;-78
2022/12/30 08:15:16;;;;;;;2.88;1.55;;;;;;;6.23;75.20;96707.75;6156078;23;20029;-78
2022/12/30 08:17:43;;;;;;;2.17;1.60;;;;;;;6.24;74.49;96708.56;6154905;23;20013;-78
2022/12/30 08:20:11;;;;;;;2.95;2.20;;;;;;;6.23;73.98;96709.50;6155963;23;20026;-78
2022/12/30 08:22:40;;;;;;;3.38;2.28;;;;;;;6.24;74.76;96716.34;6155428;23;20474;-78
2022/12/30 08:25:08;;;;;;;2.58;2.10;;;;;;;6.25;75.27;96715.38;6155141;23;20021;-78
2022/12/30 08:27:35;;;;;;;1.95;1.65;;;;;;;6.26;74.29;96701.47;6155429;23;20022;-78
2022/12/30 08:30:05;;;;;;;1.75;1.48;;;;;;;6.25;73.83;96705.81;6155483;23;20027;-78
2022/12/30 08:32:32;;;;;;;1.67;1.38;;;;;;;6.22;73.67;96700.13;6155191;23;20500;-78
2022/12/30 08:35:00;;;;;;;1.48;1.35;;;;;;;6.17;73.65;96701.41;6155471;23;20047;-78
2022/12/30 08:37:27;;;;;;;1.35;1.25;;;;;;;6.16;73.85;96704.13;6155679;23;20354;-78
2022/12/30 08:39:55;;;;;;;1.05;1.05;;;;;;;6.17;73.71;96700.59;6155108;23;20025;-79
2022/12/30 08:42:22;;;;;;;1.23;1.13;;;;;;;6.17;74.02;96698.00;6155969;23;20030;-78
2022/12/30 08:44:50;;;;;;;1.50;1.40;;;;;;;6.17;74.03;96701.41;6157945;23;20353;-78
2022/12/30 08:47:19;;;;;;;1.13;1.08;;;;;;;6.24;74.60;96698.22;6157110;23;20024;-78
2022/12/30 08:49:46;;;;;;;1.52;1.27;;;;;;;6.29;75.17;96701.94;6158083;23;20021;-79
2022/12/30 08:52:14;;;;;;;1.95;1.50;;;;;;;6.35;75.13;96698.75;6158575;23;20365;-78
2022/12/30 08:54:41;;;;;;;1.33;1.00;;;;;;;6.40;75.16;96699.09;6157307;23;20036;-78
2022/12/30 08:57:11;;;;;;;1.20;1.10;;;;;;;6.45;75.52;96701.25;6164020;23;20032;-79
2022/12/30 08:59:39;;;;;;;1.40;1.30;;;;;;;6.50;74.88;96699.00;6177467;23;20037;-79
2022/12/30 09:02:10;;;;;;;0.90;0.90;;;;;;;6.52;74.78;96691.91;6177297;23;20053;-79
2022/12/30 09:04:40;;;;;;;1.30;1.15;;;;;;;6.55;74.67;96688.19;6176499;23;20032;-78
2022/12/30 09:07:08;;;;;;;1.05;0.90;;;;;;;6.59;74.77;96686.91;6174392;23;20048;-79
2022/12/30 09:09:56;;;;;;;1.65;1.55;;;;;;;6.62;73.88;96683.19;6159505;23;20021;-79
2022/12/30 09:12:23;;;;;;;2.13;1.40;;;;;;;6.60;74.14;96679.00;6177971;23;20145;-79
2022/12/30 09:14:51;;;;;;;1.30;1.20;;;;;;;6.64;73.61;96673.47;6168335;23;20100;-77
2022/12/30 09:17:18;;;;;;;1.88;1.45;;;;;;;6.65;73.70;96675.09;6157613;23;20125;-78
2022/12/30 09:19:47;;;;;;;2.30;1.25;;;;;;;6.66;73.56;96666.38;6157075;23;20036;-78
2022/12/30 09:22:14;;;;;;;2.72;1.17;;;;;;;6.69;73.68;96660.84;6156557;23;20454;-78
2022/12/30 09:24:42;;;;;;;2.08;1.40;;;;;;;6.71;73.18;96666.69;6157121;23;20107;-78
2022/12/30 09:27:09;;;;;;;2.72;1.30;;;;;;;6.70;73.30;96668.50;6156558;23;20028;-78
2022/12/30 09:29:37;;;;;;;2.90;1.20;;;;;;;6.69;73.09;96659.09;6156695;23;20362;-78
2022/12/30 09:32:05;;;;;;;0.80;0.80;;;;;;;6.69;73.08;96650.50;6156720;23;20096;-78
2022/12/30 09:34:32;;;;;;;1.48;1.23;;;;;;;6.70;73.62;96652.13;6156920;23;20096;-78
2022/12/30 09:37:01;;;;;;;3.03;0.93;;;;;;;6.72;73.57;96645.81;6156817;23;20022;-78
2022/12/30 09:39:31;;;;;;;1.70;1.15;;;;;;;6.77;73.19;96637.56;6156556;23;20021;-78
2022/12/30 09:45:04;;;;;;;3.10;1.00;;;;;;;6.92;73.41;96643.78;6156291;23;20014;-78
2022/12/30 09:47:34;;;;;;;2.13;1.20;;;;;;;6.97;73.22;96640.69;6156189;23;20462;-79
2022/12/30 09:50:06;;;;;;;3.25;1.25;;;;;;;7.03;73.52;96641.88;6155976;23;20027;-79
2022/12/30 09:52:47;;;;;;;1.30;1.20;;;;;;;7.10;73.44;96648.03;6156388;23;20022;-78
2022/12/30 09:55:18;;;;;;;2.28;1.33;;;;;;;7.15;73.35;96632.78;6156078;23;20026;-78
2022/12/30 09:57:51;;;;;;;1.75;1.05;;;;;;;7.22;72.76;96626.03;6156056;23;20022;-79
2022/12/30 10:00:21;;;;;;;2.65;2.03;;;;;;;7.24;72.34;96624.09;6156300;23;20032;-78
2022/12/30 10:03:02;;;;;;;1.55;1.45;;;;;;;7.27;72.23;96620.34;6155829;23;20025;-78
2022/12/30 10:06:02;;;;;;;2.85;1.83;;;;;;;7.34;73.72;96619.53;6156114;23;20026;-78
2022/12/30 10:08:46;;;;;;;2.33;1.63;;;;;;;7.43;73.92;96628.97;6179545;23;20061;-78
2022/12/30 10:11:26;;;;;;;1.50;1.40;;;;;;;7.55;73.94;96628.66;6181833;23;20021;-78
2022/12/30 10:14:07;;;;;;;1.27;1.15;;;;;;;7.66;74.07;96627.50;6160459;23;20048;-78
2022/12/30 10:16:47;;;;;;;1.38;1.20;;;;;;;7.75;74.68;96616.94;6156842;23;20025;-78
2022/12/30 10:19:22;;;;;;;1.38;1.13;;;;;;;7.83;71.96;96603.16;6156451;23;20081;-78
2022/12/30 10:21:57;;;;;;;2.67;1.35;;;;;;;7.85;71.35;96593.44;6156745;23;20028;-78
2022/12/30 10:24:42;;;;;;;1.10;1.00;;;;;;;7.91;70.64;96590.13;6156189;23;20022;-78
2022/12/30 10:27:18;;;;;;;0.95;0.82;;;;;;;7.99;70.79;96581.53;6156218;23;20028;-78
2022/12/30 10:29:46;;;;;;;1.60;0.80;;;;;;;8.08;70.76;96580.53;6155353;23;20037;-78
2022/12/30 10:32:20;;;;;;;1.25;0.80;;;;;;;8.15;70.26;96560.69;6156096;23;20021;-78
2022/12/30 10:34:49;;;;;;;2.03;0.85;;;;;;;8.22;69.83;96548.69;6155718;23;20040;-78
2022/12/30 10:37:27;;;;;;;1.23;1.13;;;;;;;8.28;69.76;96554.16;6156028;23;20056;-78
2022/12/30 10:39:56;;;;;;;1.92;1.00;;;;;;;8.35;69.74;96549.91;6155653;23;20021;-79
2022/12/30 10:42:38;;;;;;;1.20;1.10;;;;;;;8.40;69.37;96543.28;6155435;23;20112;-79
2022/12/30 10:45:30;;;;;;;1.52;0.98;;;;;;;8.45;69.24;96533.16;6155911;23;20028;-78
2022/12/30 10:48:09;;;;;;;1.13;0.85;;;;;;;8.51;69.36;96526.50;6155465;23;20394;-79
2022/12/30 10:50:40;;;;;;;2.05;0.80;;;;;;;8.58;69.23;96519.63;6162969;23;20037;-78
2022/12/30 10:53:13;;;;;;;1.02;0.70;;;;;;;8.65;69.13;96515.34;6178970;23;20048;-80
2022/12/30 10:55:48;;;;;;;0.60;0.60;;;;;;;8.75;68.84;96512.53;6179561;23;20027;-79
2022/12/30 10:58:26;;;;;;;3.38;1.55;;;;;;;8.85;69.67;96504.50;6158965;23;20078;-78
2022/12/30 11:00:54;;;;;;;0.57;0.45;;;;;;;8.97;69.95;96497.91;6158118;23;20029;-79
2022/12/30 11:03:36;;;;;;;0.75;0.40;;;;;;;9.08;69.21;96499.31;6157452;23;20120;-79
2022/12/30 11:06:23;;;;;;;0.55;0.55;;;;;;;9.21;69.47;96509.13;6156435;23;20037;-79
2022/12/30 11:08:53;;;;;;;0.50;0.50;;;;;;;9.31;69.05;96499.25;6156533;23;20053;-79
2022/12/30 11:14:42;;;;;;;0.50;0.30;;;;;;;9.41;68.09;96493.81;6155567;23;20457;-79
2022/12/30 11:14:44;;;;;;;0.90;0.60;;;;;;;9.49;67.94;96496.38;6155822;23;20073;-78
2022/12/30 11:17:22;;;;;;;1.17;0.93;;;;;;;9.58;66.94;96504.91;6156066;23;20049;-79
2022/12/30 11:19:52;;;;;;;1.60;1.50;;;;;;;9.67;66.85;96496.81;6155912;23;20092;-79
2022/12/30 11:22:20;;;;;;;2.05;1.13;;;;;;;9.78;66.44;96479.94;6155648;23;20478;-79
2022/12/30 11:24:58;;;;;;;0.98;0.90;;;;;;;9.89;66.02;96470.88;6155673;23;20027;-79
2022/12/30 11:27:39;;;;;;;1.30;1.20;;;;;;;10.04;64.95;96473.47;6156043;23;20049;-79
2022/12/30 11:30:08;;;;;;;1.20;1.10;;;;;;;10.15;65.24;96480.03;6155804;23;20028;-79
2022/12/30 11:32:35;;;;;;;1.55;1.17;;;;;;;10.27;64.67;96478.56;6155768;23;20025;-79
2022/12/30 11:35:03;;;;;;;1.27;1.17;;;;;;;10.39;64.21;96471.91;6155787;23;20504;-79
2022/12/30 11:37:34;;;;;;;1.35;1.10;;;;;;;10.53;64.21;96472.88;6155826;23;20022;-79
2022/12/30 11:40:27;;;;;;;2.17;1.40;;;;;;;10.71;64.61;96464.63;6155409;23;20092;-79
2022/12/30 11:43:14;;;;;;;1.55;1.40;;;;;;;10.92;63.61;96471.66;6157291;23;20025;-79
2022/12/30 11:45:59;;;;;;;1.77;1.67;;;;;;;11.08;63.08;96460.94;6156599;23;20353;-79
2022/12/30 11:48:32;;;;;;;2.42;1.88;;;;;;;11.26;62.04;96462.28;6155918;23;20041;-79
2022/12/30 11:51:01;;;;;;;2.13;1.98;;;;;;;11.39;62.15;96451.97;6155735;23;20025;-79
2022/12/30 12:04:34;;;;;;;1.37;1.00;;;;;;;12.13;60.78;96461.03;6121703;23;20027;-83
2022/12/30 12:07:03;;;;;;;1.52;1.35;;;;;;;12.27;60.68;96460.09;6198978;23;20234;-89
2022/12/30 12:09:39;;;;;;;0.95;0.90;;;;;;;12.38;58.34;96456.13;6196889;23;20525;-84
2022/12/30 12:12:12;;;;;;;3.40;1.17;;;;;;;12.47;59.73;96460.16;6196433;23;20040;-80
2022/12/30 12:14:55;;;;;;;1.02;0.93;;;;;;;12.59;59.52;96457.75;6185506;23;20025;-86
2022/12/30 12:17:30;;;;;;;;;;;;;;;12.76;60.43;96459.00;6168796;23;20022;-80
2022/12/30 12:20:05;;;;;;;1.13;0.90;;;;;;;12.87;58.37;96449.78;6170964;23;19991;-85
2022/12/30 12:22:38;;;;;;;1.38;0.90;;;;;;;12.96;58.19;96460.84;6172271;23;20474;-83
2022/12/30 12:25:18;;;;;;;0.55;0.55;;;;;;;13.05;56.68;96469.31;6171679;23;20022;-85
2022/12/30 12:27:45;;;;;;;1.42;1.05;;;;;;;13.10;57.01;96457.25;6171451;23;20028;-82
2022/12/30 12:30:13;;;;;;;2.20;0.88;;;;;;;13.10;56.52;96452.00;6170010;23;20013;-82
2022/12/30 12:33:01;;;;;;;0.80;0.50;;;;;;;13.05;55.19;96454.41;6169737;23;20074;-84
2022/12/30 12:35:42;;;;;;;0.47;0.43;;;;;;;12.99;55.49;96448.19;6169898;23;20043;-80
2022/12/30 12:38:27;;;;;;;0.63;0.60;;;;;;;12.92;55.49;96457.03;6169331;23;20104;-84
2022/12/30 12:41:15;;;;;;;0.90;0.50;;;;;;;12.79;55.40;96431.66;6169173;23;20513;-80
2022/12/30 12:43:58;;;;;;;1.08;0.55;;;;;;;12.67;55.70;96430.63;6168917;23;20092;-81
2022/12/30 12:46:39;;;;;;;1.17;0.60;;;;;;;12.51;56.87;96427.38;6169695;23;20088;-83
2022/12/30 12:49:34;;;;;;;2.22;0.88;;;;;;;12.35;56.61;96410.25;6169595;23;20029;-82
2022/12/30 12:52:13;;;;;;;1.10;0.63;;;;;;;12.17;56.83;96407.34;6171288;23;20073;-81
2022/12/30 12:55:10;;;;;;;2.97;0.80;;;;;;;12.02;57.14;96419.75;6170855;23;20033;-80
2022/12/30 12:57:45;;;;;;;1.05;0.95;;;;;;;11.90;59.18;96407.25;6172037;23;20032;-86
2022/12/30 13:00:14;;;;;;;1.05;0.65;;;;;;;11.83;58.32;96390.72;6170624;23;20023;-85
2022/12/30 13:03:19;;;;;;;1.42;1.00;;;;;;;11.74;58.32;96381.41;6171011;23;20013;-87
2022/12/30 13:05:55;;;;;;;1.48;0.73;;;;;;;11.66;59.62;96381.59;6170153;23;20033;-80
2022/12/30 13:08:40;;;;;;;0.60;0.60;;;;;;;11.57;58.98;96377.50;6169612;23;20052;-80
2022/12/30 13:11:15;;;;;;;1.15;0.98;;;;;;;11.48;59.35;96374.25;6170931;23;20433;-82
2022/12/30 13:14:06;;;;;;;0.75;0.70;;;;;;;11.38;59.31;96374.59;6170410;23;20037;-85
2022/12/30 13:16:41;;;;;;;0.70;0.70;;;;;;;11.31;60.82;96378.97;6168962;23;20104;-85